Portada
METAR-TAF:

METAR-TAF

Aeroports :

Saragossa, Espanya

latitud: 41-40N, longitud: 001-01W, altitud: 263 m

Observació

L'informe es va fer fa 14 hores i 51 minuts, a les 05:00 UTC
Vent 9 kt del Oest
Temperatura 19°C
Humitat 73%
Pressió 1018 hPa
Visibilitat 10 km o més
sense núvols per sota de 1500 mi sense presència de cumulonimbus.

METAR: LEZG 210500Z 26009KT CAVOK 19/14 Q1018

Hora: 21:51 (19:51 UTC)

Pronòstic

L'informe es va fer fa 14 hores i 51 minuts, a les 05:00 UTC
Pronòstic vàlid del 21 a les 06 UTC al 22 a les 06 UTC
Vent 10 kt del Oest/Nord-Oest
Visibilitat 10 km o més
Escasses núvols a una alçada de 5000 ft
Evolucionant progressivament
l' 21 a les 12 UTC al 21 a les 14 UTC
Vent 5 kt del Nord
Evolucionant progressivament
l' 21 a les 18 UTC al 21 a les 21 UTC
Vent 6 kt del Est/Sud-Est

TAF: LEZG 210500Z 2106/2206 30010KT 9999 FEW050 TX35/2114Z TN20/2206Z BECMG 2112/2114 36005KT BECMG 2118/2121 11006KT

Observacions i pronòstics meteorològics de més de 4000 aeroports (METAR i TAF).

Les estacions disponibles són els punts grocs i vermells al mapa.

Posi el ratolí al punt desitjat per veure el nom de l'estació.

Feu clic per veure les observacions i els pronòstics meteorològics.

Per canviar el mapa: feu clic els botons verds amb una creu de color negre per apropar; al botó verd amb un guió per allunyar la imatge; o en les fletxes verdes per a mapes adjacents.


METAR-TAF: